createdAt,value
2022-10-08T00:00:58.792Z,24.77
2022-10-08T00:03:43.917Z,26.85
2022-10-08T00:06:39.809Z,24.80
2022-10-08T00:09:33.794Z,29.08
2022-10-08T00:12:27.770Z,23.52
2022-10-08T00:15:21.785Z,24.10
2022-10-08T00:18:08.793Z,25.05
2022-10-08T00:20:48.817Z,44.55
2022-10-08T00:23:42.790Z,45.55
2022-10-08T00:26:32.835Z,28.58
2022-10-08T00:29:09.913Z,31.35
2022-10-08T00:31:57.814Z,23.38
2022-10-08T00:34:37.790Z,23.00
2022-10-08T00:37:24.809Z,24.98
2022-10-08T00:39:58.865Z,23.10
2022-10-08T00:42:46.023Z,23.58
2022-10-08T00:45:19.851Z,24.25
2022-10-08T00:48:06.813Z,20.45
2022-10-08T00:50:48.811Z,21.67
2022-10-08T00:53:42.804Z,22.42
2022-10-08T00:56:30.817Z,23.15
2022-10-08T00:59:03.883Z,20.48
2022-10-08T01:01:50.852Z,21.33
2022-10-08T01:04:31.808Z,19.95
2022-10-08T01:07:32.819Z,21.75
2022-10-08T01:10:33.366Z,20.85
2022-10-08T01:13:39.828Z,20.67
2022-10-08T01:16:52.808Z,21.48
2022-10-08T01:20:24.826Z,20.80
2022-10-08T01:23:26.818Z,21.67
2022-10-08T01:26:18.837Z,21.17
2022-10-08T01:29:43.812Z,19.55
2022-10-08T01:32:37.827Z,20.17
2022-10-08T01:35:15.920Z,21.67
2022-10-08T01:38:06.858Z,22.00
2022-10-08T01:40:43.899Z,22.55
2022-10-08T01:43:33.800Z,22.92
2022-10-08T01:46:20.846Z,21.33
2022-10-08T01:49:21.859Z,21.98
2022-10-08T01:52:14.827Z,21.40
2022-10-08T01:54:50.894Z,21.30
2022-10-08T01:57:39.833Z,21.85
2022-10-08T02:00:16.970Z,22.27
2022-10-08T02:03:03.816Z,20.77
2022-10-08T02:05:41.901Z,20.17
2022-10-08T02:08:29.816Z,21.67
2022-10-08T02:11:02.923Z,21.83
2022-10-08T02:13:56.839Z,21.55
2022-10-08T02:16:49.922Z,20.27
2022-10-08T02:19:35.909Z,19.95
2022-10-08T02:22:26.844Z,19.63
2022-10-08T02:25:06.955Z,20.13
2022-10-08T02:28:05.899Z,22.23
2022-10-08T02:30:46.928Z,21.70
2022-10-08T02:33:39.831Z,20.25
2022-10-08T02:36:15.950Z,21.35
2022-10-08T02:39:05.862Z,22.10
2022-10-08T02:41:50.911Z,20.77
2022-10-08T02:44:43.856Z,21.25
2022-10-08T02:47:28.832Z,21.48
2022-10-08T02:50:20.848Z,23.42
2022-10-08T02:52:56.146Z,20.92
2022-10-08T02:56:00.857Z,21.30
2022-10-08T02:58:40.862Z,21.30
2022-10-08T03:01:53.879Z,24.23
2022-10-08T03:04:49.858Z,26.38
2022-10-08T03:07:30.853Z,28.00
2022-10-08T03:10:18.876Z,24.83
2022-10-08T03:12:52.969Z,25.23
2022-10-08T03:15:41.845Z,23.88
2022-10-08T03:18:24.867Z,26.73
2022-10-08T03:21:21.866Z,24.48
2022-10-08T03:24:11.858Z,24.25
2022-10-08T03:26:45.946Z,23.67
2022-10-08T03:29:32.934Z,22.98
2022-10-08T03:32:06.694Z,21.90
2022-10-08T03:34:53.868Z,20.98
2022-10-08T03:37:26.973Z,22.95
2022-10-08T03:40:14.931Z,21.27
2022-10-08T03:42:48.382Z,21.05
2022-10-08T03:45:35.864Z,20.13
2022-10-08T03:48:15.874Z,21.85
2022-10-08T03:51:12.916Z,19.75
2022-10-08T03:53:59.859Z,21.33
2022-10-08T03:56:35.990Z,21.17
2022-10-08T03:59:22.936Z,20.17
2022-10-08T04:01:56.046Z,19.00
2022-10-08T04:04:42.929Z,19.10
2022-10-08T04:07:25.459Z,19.80
2022-10-08T04:10:11.883Z,20.23
2022-10-08T04:12:51.955Z,20.02
2022-10-08T04:15:39.019Z,20.88
2022-10-08T04:18:13.867Z,19.83
2022-10-08T04:21:08.934Z,19.17
2022-10-08T04:23:50.915Z,19.38
2022-10-08T04:26:37.885Z,20.58
2022-10-08T04:29:12.614Z,20.88
2022-10-08T04:31:58.928Z,20.73
2022-10-08T04:34:38.966Z,19.80
2022-10-08T04:37:32.931Z,19.70
2022-10-08T04:40:22.918Z,19.63
2022-10-08T04:43:05.935Z,19.90
2022-10-08T04:45:59.914Z,20.40
2022-10-08T04:48:46.937Z,20.63
2022-10-08T04:51:20.044Z,17.50
2022-10-08T04:54:06.971Z,20.63
2022-10-08T04:56:40.038Z,20.63
2022-10-08T04:59:26.959Z,24.45
2022-10-08T05:02:09.954Z,20.42
2022-10-08T05:04:56.918Z,20.00
2022-10-08T05:07:32.198Z,19.20
2022-10-08T05:10:18.920Z,19.20
2022-10-08T05:12:52.034Z,19.15
2022-10-08T05:15:39.004Z,18.45
2022-10-08T05:18:11.991Z,18.13
2022-10-08T05:20:58.975Z,19.77
2022-10-08T05:23:34.044Z,20.73
2022-10-08T05:26:57.095Z,19.23
2022-10-08T05:29:26.013Z,19.33
2022-10-08T05:32:12.920Z,18.75
2022-10-08T05:34:46.049Z,19.50
2022-10-08T05:37:32.935Z,20.08
2022-10-08T05:40:06.058Z,22.30
2022-10-08T05:42:52.980Z,20.98
2022-10-08T05:45:34.005Z,20.52
2022-10-08T05:48:20.964Z,24.90
2022-10-08T05:51:00.998Z,20.27
2022-10-08T05:53:57.953Z,23.38
2022-10-08T05:56:52.003Z,19.52
2022-10-08T05:59:47.954Z,21.05
2022-10-08T06:02:34.985Z,20.50
2022-10-08T06:05:08.095Z,21.27
2022-10-08T06:07:55.958Z,21.60
2022-10-08T06:10:32.006Z,20.58
2022-10-08T06:13:19.952Z,18.10
2022-10-08T06:16:07.145Z,20.90
2022-10-08T06:18:53.954Z,21.23
2022-10-08T06:21:30.045Z,20.63
2022-10-08T06:24:12.975Z,22.88
2022-10-08T06:26:53.952Z,19.50
2022-10-08T06:29:28.086Z,20.88
2022-10-08T06:32:15.973Z,16.88
2022-10-08T06:34:52.074Z,19.83
2022-10-08T06:37:40.006Z,20.60
2022-10-08T06:40:14.040Z,20.33
2022-10-08T06:43:01.955Z,20.33
2022-10-08T06:45:35.051Z,18.83
2022-10-08T06:48:22.003Z,18.55
2022-10-08T06:50:55.061Z,19.33
2022-10-08T06:53:37.003Z,19.63
2022-10-08T06:56:22.015Z,21.33
2022-10-08T06:58:56.112Z,19.60
2022-10-08T07:01:43.108Z,20.55
2022-10-08T07:04:18.290Z,21.00
2022-10-08T07:07:05.996Z,20.60
2022-10-08T07:09:48.000Z,20.38
2022-10-08T07:12:41.996Z,21.48
2022-10-08T07:15:29.017Z,20.45
2022-10-08T07:18:02.041Z,20.63
2022-10-08T07:20:49.001Z,20.77
2022-10-08T07:23:22.035Z,18.02
2022-10-08T07:26:14.422Z,19.52
2022-10-08T07:28:51.139Z,21.77
2022-10-08T07:31:41.043Z,20.00
2022-10-08T07:34:18.051Z,19.23
2022-10-08T07:37:04.980Z,18.27
2022-10-08T07:39:38.055Z,18.55
2022-10-08T07:42:24.995Z,17.98
2022-10-08T07:45:04.980Z,20.05
2022-10-08T07:47:52.002Z,18.15
2022-10-08T07:50:32.009Z,19.05
2022-10-08T07:53:19.008Z,19.88
2022-10-08T07:55:52.095Z,21.45
2022-10-08T07:58:38.979Z,23.45
2022-10-08T08:01:14.788Z,23.58
2022-10-08T08:04:08.993Z,20.55
2022-10-08T08:06:52.469Z,20.65
2022-10-08T08:09:39.022Z,22.65
2022-10-08T08:12:12.473Z,21.02
2022-10-08T08:14:58.993Z,20.67
2022-10-08T08:17:32.071Z,19.60
2022-10-08T08:20:19.005Z,21.83
2022-10-08T08:22:52.130Z,20.65
2022-10-08T08:25:40.053Z,18.88
2022-10-08T08:28:22.354Z,22.48
2022-10-08T08:31:26.143Z,22.20
2022-10-08T08:34:03.464Z,20.15
2022-10-08T08:36:53.018Z,20.45
2022-10-08T08:39:40.349Z,21.20
2022-10-08T08:43:07.016Z,19.52
2022-10-08T08:45:55.031Z,18.50
2022-10-08T08:48:34.162Z,19.27
2022-10-08T08:51:21.000Z,22.15
2022-10-08T08:53:54.066Z,18.60
2022-10-08T08:56:41.012Z,16.50
2022-10-08T08:59:45.005Z,19.05
2022-10-08T09:02:46.275Z,17.20
2022-10-08T09:05:36.109Z,17.17
2022-10-08T09:08:31.137Z,16.52
2022-10-08T09:11:24.044Z,16.90
2022-10-08T09:14:19.108Z,17.45
2022-10-08T09:17:15.031Z,17.13
2022-10-08T09:19:49.092Z,19.85
2022-10-08T09:22:43.060Z,17.30
2022-10-08T09:25:23.109Z,17.48
2022-10-08T09:28:11.090Z,17.08
2022-10-08T09:30:49.168Z,17.90
2022-10-08T09:33:39.047Z,17.25
2022-10-08T09:36:12.283Z,15.80
2022-10-08T09:39:05.044Z,17.30
2022-10-08T09:41:38.126Z,16.88
2022-10-08T09:44:30.057Z,15.85
2022-10-08T09:47:12.173Z,17.48
2022-10-08T09:50:14.056Z,16.33
2022-10-08T09:52:48.388Z,17.42
2022-10-08T09:55:42.055Z,16.17
2022-10-08T09:58:25.126Z,16.17
2022-10-08T10:01:22.127Z,16.55
2022-10-08T10:04:13.129Z,17.25
2022-10-08T10:07:02.061Z,17.75
2022-10-08T10:10:02.025Z,16.80
2022-10-08T10:13:02.098Z,17.15
2022-10-08T10:16:14.062Z,17.33
2022-10-08T10:19:04.876Z,16.50
2022-10-08T10:22:01.076Z,17.15
2022-10-08T10:24:55.040Z,18.13
2022-10-08T10:27:49.075Z,18.80
2022-10-08T10:30:35.122Z,17.70
2022-10-08T10:33:32.089Z,17.83
2022-10-08T10:36:10.150Z,18.23
2022-10-08T10:39:15.079Z,19.05
2022-10-08T10:42:10.146Z,18.55
2022-10-08T10:45:07.111Z,19.02
2022-10-08T10:47:47.069Z,18.85
2022-10-08T10:50:57.075Z,17.98
2022-10-08T10:54:07.084Z,18.45
2022-10-08T10:57:01.079Z,19.05
2022-10-08T11:00:39.137Z,18.30
2022-10-08T11:03:50.078Z,19.35
2022-10-08T11:07:03.224Z,18.75
2022-10-08T11:10:00.145Z,19.10
2022-10-08T11:12:59.150Z,19.42
2022-10-08T11:16:20.166Z,19.60
2022-10-08T11:19:06.101Z,17.95
2022-10-08T11:22:03.096Z,19.77
2022-10-08T11:25:04.109Z,21.48
2022-10-08T11:28:16.156Z,20.35
2022-10-08T11:31:02.265Z,19.80
2022-10-08T11:33:51.110Z,19.27
2022-10-08T11:36:43.106Z,20.85
2022-10-08T11:39:42.106Z,21.63
2022-10-08T11:42:31.093Z,21.13
2022-10-08T11:45:30.116Z,20.05
2022-10-08T11:48:13.107Z,19.70
2022-10-08T11:51:00.123Z,20.63
2022-10-08T11:53:40.096Z,19.20
2022-10-08T11:56:27.116Z,19.95
2022-10-08T11:59:02.188Z,21.42
2022-10-08T12:02:01.202Z,22.73
2022-10-08T12:04:52.152Z,21.10
2022-10-08T12:07:51.136Z,20.73
2022-10-08T12:10:52.120Z,21.10
2022-10-08T12:13:46.120Z,22.20
2022-10-08T12:17:02.156Z,19.58
2022-10-08T12:19:58.127Z,21.55
2022-10-08T12:22:45.326Z,21.17
2022-10-08T12:25:40.252Z,20.23
2022-10-08T12:28:27.174Z,19.05
2022-10-08T12:31:16.214Z,19.17
2022-10-08T12:34:33.125Z,20.35
2022-10-08T12:37:50.594Z,20.55
2022-10-08T12:40:44.132Z,18.75
2022-10-08T12:43:41.134Z,19.00
2022-10-08T12:46:55.270Z,19.10
2022-10-08T12:49:53.146Z,20.13
2022-10-08T12:52:35.147Z,19.60
2022-10-08T12:55:25.159Z,21.48
2022-10-08T12:58:06.160Z,21.38
2022-10-08T13:01:05.193Z,20.58
2022-10-08T13:03:53.162Z,19.50
2022-10-08T13:06:34.282Z,18.98
2022-10-08T13:09:42.158Z,18.48
2022-10-08T13:12:22.161Z,19.17
2022-10-08T13:15:19.185Z,20.08
2022-10-08T13:18:35.164Z,20.75
2022-10-08T13:21:50.198Z,19.02
2022-10-08T13:24:46.177Z,17.92
2022-10-08T13:27:35.154Z,18.60
2022-10-08T13:30:35.182Z,18.80
2022-10-08T13:33:37.162Z,18.58
2022-10-08T13:36:29.170Z,19.15
2022-10-08T13:39:02.224Z,17.73
2022-10-08T13:42:01.174Z,16.50
2022-10-08T13:44:41.166Z,18.17
2022-10-08T13:47:29.194Z,19.45
2022-10-08T13:50:23.281Z,18.83
2022-10-08T13:53:11.169Z,19.45
2022-10-08T13:55:45.282Z,18.30
2022-10-08T13:58:32.178Z,18.02
2022-10-08T14:01:12.217Z,19.02
2022-10-08T14:03:59.193Z,20.20
2022-10-08T14:06:32.237Z,18.70
2022-10-08T14:09:23.202Z,19.38
2022-10-08T14:11:59.342Z,18.48
2022-10-08T14:14:46.208Z,19.52
2022-10-08T14:17:19.257Z,18.25
2022-10-08T14:20:06.227Z,19.63
2022-10-08T14:22:46.191Z,19.98
2022-10-08T14:25:35.175Z,19.83
2022-10-08T14:28:08.311Z,20.85
2022-10-08T14:30:55.218Z,21.05
2022-10-08T14:33:35.217Z,21.73
2022-10-08T14:36:25.230Z,21.83
2022-10-08T14:38:58.295Z,21.85
2022-10-08T14:41:47.204Z,22.27
2022-10-08T14:44:22.420Z,19.95
2022-10-08T14:47:09.221Z,21.55
2022-10-08T14:49:42.267Z,20.88
2022-10-08T14:52:29.257Z,21.15
2022-10-08T14:55:02.307Z,19.85
2022-10-08T14:57:49.199Z,23.33
2022-10-08T15:00:29.227Z,29.25
2022-10-08T15:03:23.208Z,22.65
2022-10-08T15:06:10.298Z,24.55
2022-10-08T15:08:43.380Z,28.25
2022-10-08T15:11:30.274Z,22.30
2022-10-08T15:14:03.337Z,22.55
2022-10-08T15:16:50.289Z,23.60
2022-10-08T15:19:30.252Z,21.38
2022-10-08T15:22:24.309Z,23.58
2022-10-08T15:25:11.255Z,23.17
2022-10-08T15:27:44.310Z,28.17
2022-10-08T15:30:32.319Z,26.83
2022-10-08T15:33:10.325Z,21.80
2022-10-08T15:35:57.227Z,23.17
2022-10-08T15:38:37.263Z,23.98
2022-10-08T15:41:31.247Z,25.73
2022-10-08T15:44:27.246Z,22.52
2022-10-08T15:47:14.250Z,19.95
2022-10-08T15:49:49.320Z,26.23
2022-10-08T15:52:36.254Z,32.67
2022-10-08T15:55:16.240Z,21.15
2022-10-08T15:58:10.259Z,21.45
2022-10-08T16:01:04.311Z,26.02
2022-10-08T16:04:00.387Z,28.70
2022-10-08T16:06:54.251Z,36.03
2022-10-08T16:09:36.237Z,35.45
2022-10-08T16:12:23.243Z,37.08
2022-10-08T16:15:03.251Z,36.88
2022-10-08T16:17:50.267Z,49.33
2022-10-08T16:20:23.328Z,43.90
2022-10-08T16:23:10.239Z,47.60
2022-10-08T16:25:50.257Z,39.00
2022-10-08T16:28:46.269Z,31.92
2022-10-08T16:31:19.357Z,30.77
2022-10-08T16:34:12.261Z,32.03
2022-10-08T16:36:52.275Z,32.35
2022-10-08T16:39:39.286Z,30.25
2022-10-08T16:42:19.275Z,29.23
2022-10-08T16:45:06.283Z,31.52
2022-10-08T16:47:39.341Z,33.65
2022-10-08T16:50:26.283Z,29.23
2022-10-08T16:52:59.337Z,25.77
2022-10-08T16:55:46.264Z,29.30
2022-10-08T16:58:26.272Z,27.95
2022-10-08T17:01:14.343Z,24.38
2022-10-08T17:03:48.669Z,26.67
2022-10-08T17:06:35.287Z,27.05
2022-10-08T17:09:09.366Z,27.77
2022-10-08T17:11:56.300Z,28.88
2022-10-08T17:14:37.316Z,28.73
2022-10-08T17:17:24.305Z,27.58
2022-10-08T17:20:04.271Z,30.65
2022-10-08T17:22:51.322Z,29.60
2022-10-08T17:25:24.362Z,27.20
2022-10-08T17:28:11.345Z,29.40
2022-10-08T17:30:44.379Z,32.33
2022-10-08T17:33:35.651Z,27.20
2022-10-08T17:36:30.442Z,27.52
2022-10-08T17:39:20.289Z,29.17
2022-10-08T17:41:53.401Z,28.15
2022-10-08T17:44:40.297Z,27.42
2022-10-08T17:47:20.313Z,30.80
2022-10-08T17:50:07.303Z,27.85
2022-10-08T17:52:47.576Z,26.60
2022-10-08T17:55:41.327Z,29.20
2022-10-08T17:58:28.367Z,28.75
2022-10-08T18:01:16.440Z,28.45
2022-10-08T18:04:15.296Z,28.90
2022-10-08T18:07:01.170Z,27.00
2022-10-08T18:09:57.353Z,27.30
2022-10-08T18:12:51.378Z,27.85
2022-10-08T18:15:45.380Z,29.92
2022-10-08T18:18:32.311Z,32.85
2022-10-08T18:21:14.320Z,30.50
2022-10-08T18:24:01.325Z,28.92
2022-10-08T18:26:43.305Z,28.23
2022-10-08T18:29:37.346Z,30.08
2022-10-08T18:32:31.363Z,40.55
2022-10-08T18:35:25.354Z,61.30
2022-10-08T18:38:12.358Z,87.97
2022-10-08T18:40:52.351Z,86.95
2022-10-08T18:43:48.330Z,96.85
2022-10-08T18:46:35.425Z,85.07
2022-10-08T18:49:08.436Z,55.88
2022-10-08T18:51:56.429Z,51.22
2022-10-08T18:54:30.739Z,38.72
2022-10-08T18:57:17.333Z,41.28
2022-10-08T18:59:50.501Z,38.90
2022-10-08T19:02:37.462Z,33.42
2022-10-08T19:05:11.913Z,29.60
2022-10-08T19:07:58.384Z,30.60
2022-10-08T19:10:38.327Z,29.80
2022-10-08T19:13:32.358Z,29.63
2022-10-08T19:16:20.380Z,27.75
2022-10-08T19:19:09.360Z,30.65
2022-10-08T19:22:06.352Z,27.52
2022-10-08T19:24:53.362Z,26.50
2022-10-08T19:27:33.362Z,28.42
2022-10-08T19:30:25.923Z,28.92
2022-10-08T19:33:08.382Z,29.38
2022-10-08T19:35:55.384Z,32.28
2022-10-08T19:38:35.373Z,30.00
2022-10-08T19:41:30.375Z,31.85
2022-10-08T19:44:24.371Z,28.10
2022-10-08T19:47:18.352Z,29.13
2022-10-08T19:50:05.344Z,29.33
2022-10-08T19:52:38.463Z,28.25
2022-10-08T19:55:25.344Z,29.35
2022-10-08T19:57:58.465Z,31.98
2022-10-08T20:00:45.374Z,30.48
2022-10-08T20:03:18.395Z,29.23
2022-10-08T20:06:12.389Z,28.33
2022-10-08T20:08:53.363Z,31.23
2022-10-08T20:11:47.365Z,29.77
2022-10-08T20:14:34.375Z,32.28
2022-10-08T20:17:07.662Z,30.30
2022-10-08T20:20:05.211Z,33.38
2022-10-08T20:22:54.370Z,29.10
2022-10-08T20:25:50.422Z,29.25
2022-10-08T20:28:37.441Z,31.67
2022-10-08T20:31:19.563Z,30.48
2022-10-08T20:34:07.387Z,32.47
2022-10-08T20:36:41.514Z,29.85
2022-10-08T20:39:29.405Z,28.00
2022-10-08T20:42:10.390Z,26.17
2022-10-08T20:45:04.419Z,29.35
2022-10-08T20:47:51.383Z,27.02
2022-10-08T20:50:24.456Z,35.75
2022-10-08T20:53:11.414Z,28.70
2022-10-08T20:55:44.468Z,34.88
2022-10-08T20:58:31.422Z,41.20
2022-10-08T21:01:10.506Z,39.55
2022-10-08T21:03:57.411Z,29.63
2022-10-08T21:06:33.467Z,30.63
2022-10-08T21:09:21.406Z,32.22
2022-10-08T21:11:55.215Z,30.60
2022-10-08T21:14:42.385Z,33.67
2022-10-08T21:17:15.473Z,38.22
2022-10-08T21:20:02.407Z,55.42
2022-10-08T21:22:42.390Z,49.50
2022-10-08T21:25:29.391Z,56.03
2022-10-08T21:28:09.468Z,53.88
2022-10-08T21:31:03.263Z,48.65
2022-10-08T21:33:47.417Z,45.22
2022-10-08T21:36:47.411Z,42.38
2022-10-08T21:39:34.405Z,31.75
2022-10-08T21:42:07.490Z,33.83
2022-10-08T21:44:54.433Z,33.33
2022-10-08T21:47:35.415Z,44.33
2022-10-08T21:50:31.115Z,48.20
2022-10-08T21:53:20.407Z,46.72
2022-10-08T21:56:10.563Z,43.42
2022-10-08T21:58:59.648Z,43.90
2022-10-08T22:01:45.556Z,36.70
2022-10-08T22:04:30.425Z,41.33
2022-10-08T22:07:11.547Z,40.13
2022-10-08T22:09:44.537Z,32.63
2022-10-08T22:12:32.417Z,30.63
2022-10-08T22:15:12.443Z,31.48
2022-10-08T22:18:06.415Z,31.95
2022-10-08T22:20:53.422Z,30.58
2022-10-08T22:23:28.518Z,31.70
2022-10-08T22:26:21.448Z,30.48
2022-10-08T22:29:02.432Z,29.92
2022-10-08T22:31:49.506Z,28.10
2022-10-08T22:34:22.489Z,28.90
2022-10-08T22:37:09.439Z,33.65
2022-10-08T22:39:49.442Z,29.60
2022-10-08T22:42:43.441Z,27.67
2022-10-08T22:45:30.520Z,32.45
2022-10-08T22:48:03.531Z,31.15
2022-10-08T22:50:50.437Z,33.10
2022-10-08T22:53:23.531Z,30.60
2022-10-08T22:56:11.457Z,30.60
2022-10-08T22:58:52.433Z,32.83
2022-10-08T23:01:46.483Z,30.80
2022-10-08T23:04:33.460Z,28.58
2022-10-08T23:07:13.459Z,28.67
2022-10-08T23:10:00.463Z,29.38
2022-10-08T23:12:33.541Z,28.50
2022-10-08T23:15:20.447Z,27.35
2022-10-08T23:18:00.454Z,28.88
2022-10-08T23:20:54.461Z,28.92
2022-10-08T23:23:52.468Z,28.67
2022-10-08T23:26:39.470Z,27.23
2022-10-08T23:29:19.473Z,27.88
2022-10-08T23:32:13.512Z,29.05
2022-10-08T23:35:00.467Z,28.63
2022-10-08T23:37:33.529Z,28.15
2022-10-08T23:40:20.460Z,27.50
2022-10-08T23:42:53.548Z,27.25
2022-10-08T23:45:40.469Z,31.88
2022-10-08T23:48:13.634Z,26.73
2022-10-08T23:51:00.481Z,26.70
2022-10-08T23:53:34.561Z,26.75
2022-10-08T23:56:21.465Z,27.15
2022-10-08T23:58:55.530Z,28.13
